Time;durP1;ratioP1;P1;durP2;ratioP2;P2;SDS_P1;SDS_P2;PMS_P1;PMS_P2;Temp;Humidity;BMP_temperature;BMP_pressure;BME280_temperature;BME280_humidity;BME280_pressure;Samples;Min_cycle;Max_cycle;Signal;HPM_P1;HPM_P2
2022/07/01 00:01:51;;;;;;;9.47;8.43;;;23.50;99.90;;;;;;5075071;28;20435;-57
2022/07/01 00:04:18;;;;;;;10.17;9.07;;;23.40;99.90;;;;;;5074792;28;20455;-57
2022/07/01 00:06:44;;;;;;;12.13;10.10;;;23.50;99.90;;;;;;5073334;28;20424;-48
2022/07/01 00:09:11;;;;;;;11.73;10.53;;;23.40;99.90;;;;;;5074857;28;20516;-52
2022/07/01 00:11:39;;;;;;;10.33;8.97;;;23.40;99.90;;;;;;5075263;28;20476;-51
2022/07/01 00:14:06;;;;;;;10.67;9.57;;;23.40;99.90;;;;;;5075036;28;20443;-59
2022/07/01 00:16:36;;;;;;;10.53;9.20;;;23.40;99.90;;;;;;5073427;28;20455;-56
2022/07/01 00:19:02;;;;;;;10.53;9.43;;;23.40;99.90;;;;;;5070408;28;20443;-58
2022/07/01 00:21:29;;;;;;;11.80;10.60;;;23.30;99.90;;;;;;5070399;28;20450;-52
2022/07/01 00:23:56;;;;;;;10.73;9.63;;;23.30;99.90;;;;;;5064622;28;20458;-59
2022/07/01 00:26:23;;;;;;;10.37;8.90;;;23.20;99.90;;;;;;5074939;28;20515;-54
2022/07/01 00:29:01;;;;;;;10.13;8.83;;;23.10;99.90;;;;;;5075450;28;20471;-56
2022/07/01 00:31:28;;;;;;;12.57;10.37;;;23.20;99.90;;;;;;5074863;28;20471;-49
2022/07/01 00:34:07;;;;;;;13.70;10.47;;;23.10;99.90;;;;;;5074642;28;20453;-48
2022/07/01 00:36:37;;;;;;;14.37;11.50;;;23.10;99.90;;;;;;5075156;28;20466;-49
2022/07/01 00:39:04;;;;;;;11.93;10.40;;;23.00;99.90;;;;;;5076051;28;20434;-49
2022/07/01 00:41:36;;;;;;;12.70;11.30;;;22.90;99.90;;;;;;5074722;28;20467;-47
2022/07/01 00:44:07;;;;;;;12.17;10.87;;;22.90;99.90;;;;;;5073440;28;20812;-51
2022/07/01 00:46:34;;;;;;;12.37;11.17;;;22.90;99.90;;;;;;5073512;28;20478;-57
2022/07/01 00:49:01;;;;;;;12.30;10.90;;;22.90;99.90;;;;;;5067493;28;20455;-52
2022/07/01 00:51:29;;;;;;;15.03;11.70;;;22.90;99.90;;;;;;5067207;28;20505;-57
2022/07/01 00:53:58;;;;;;;15.13;11.67;;;22.80;99.90;;;;;;5073899;28;20494;-55
2022/07/01 00:56:25;;;;;;;15.40;11.57;;;22.90;99.90;;;;;;5074232;28;20435;-52
2022/07/01 00:58:52;;;;;;;12.70;11.40;;;22.80;99.90;;;;;;5074557;28;20446;-46
2022/07/01 01:01:20;;;;;;;12.70;11.40;;;22.80;99.90;;;;;;5073785;28;20444;-41
2022/07/01 01:03:47;;;;;;;17.17;12.07;;;22.80;99.90;;;;;;5071464;28;20458;-54
2022/07/01 01:06:14;;;;;;;13.73;12.33;;;22.80;99.90;;;;;;5073832;28;20487;-56
2022/07/01 01:08:41;;;;;;;14.23;12.50;;;22.80;99.90;;;;;;5074477;28;20470;-55
2022/07/01 01:11:08;;;;;;;13.77;11.03;;;22.90;99.90;;;;;;5071724;28;20482;-59
2022/07/01 01:13:36;;;;;;;14.30;12.60;;;22.90;99.90;;;;;;5073723;28;20529;-47
2022/07/01 01:16:03;;;;;;;15.97;11.97;;;22.90;99.90;;;;;;5075617;28;20445;-51
2022/07/01 01:18:33;;;;;;;15.50;12.73;;;22.80;99.90;;;;;;5073982;28;20480;-52
2022/07/01 01:21:01;;;;;;;14.90;13.27;;;22.70;99.90;;;;;;5073911;28;20450;-54
2022/07/01 01:23:28;;;;;;;15.23;12.47;;;22.80;99.90;;;;;;5073539;28;20439;-57
2022/07/01 01:25:55;;;;;;;13.17;11.50;;;22.80;99.90;;;;;;5073584;28;20483;-50
2022/07/01 01:28:22;;;;;;;15.30;12.73;;;22.90;99.90;;;;;;5071564;28;20432;-57
2022/07/01 01:30:49;;;;;;;15.13;13.53;;;22.90;99.90;;;;;;5066538;28;20481;-54
2022/07/01 01:33:18;;;;;;;13.90;12.40;;;22.80;99.90;;;;;;5074123;28;20459;-51
2022/07/01 01:35:45;;;;;;;14.40;12.80;;;22.80;99.90;;;;;;5075813;28;20530;-50
2022/07/01 01:38:13;;;;;;;13.67;12.23;;;22.70;99.90;;;;;;5075808;28;20428;-52
2022/07/01 01:40:40;;;;;;;14.53;12.93;;;22.70;99.90;;;;;;5075495;28;20514;-48
2022/07/01 01:43:06;;;;;;;15.90;13.00;;;22.70;99.90;;;;;;5075400;28;20547;-42
2022/07/01 01:45:33;;;;;;;19.73;15.00;;;22.70;99.90;;;;;;5075532;28;20761;-46
2022/07/01 01:48:00;;;;;;;17.00;14.17;;;22.60;99.90;;;;;;5075891;28;20446;-44
2022/07/01 01:50:27;;;;;;;17.73;13.77;;;22.60;99.90;;;;;;5076670;28;20424;-43
2022/07/01 01:52:54;;;;;;;17.20;14.20;;;22.60;99.90;;;;;;5075965;28;20518;-38
2022/07/01 01:55:22;;;;;;;17.07;14.50;;;22.50;99.90;;;;;;5074976;28;20491;-42
2022/07/01 01:57:49;;;;;;;15.07;13.20;;;22.50;99.90;;;;;;5075476;28;20467;-45
2022/07/01 02:00:17;;;;;;;17.80;14.67;;;22.50;99.90;;;;;;5075072;28;20454;-47
2022/07/01 02:02:44;;;;;;;18.47;15.83;;;22.40;99.90;;;;;;5075601;28;20432;-41
2022/07/01 02:05:13;;;;;;;14.80;13.27;;;22.40;99.90;;;;;;5075356;28;20457;-46
2022/07/01 02:07:40;;;;;;;15.03;13.10;;;22.40;99.90;;;;;;5074987;28;20523;-45
2022/07/01 02:10:07;;;;;;;16.70;14.90;;;22.40;99.90;;;;;;5074938;28;20450;-51
2022/07/01 02:12:35;;;;;;;17.37;14.23;;;22.30;99.90;;;;;;5075036;28;20876;-53
2022/07/01 02:15:02;;;;;;;16.57;14.20;;;22.30;99.90;;;;;;5075845;28;20431;-52
2022/07/01 02:17:29;;;;;;;17.70;14.30;;;22.30;99.90;;;;;;5075787;28;20470;-52
2022/07/01 02:19:56;;;;;;;18.00;14.40;;;22.30;99.90;;;;;;5075671;28;20523;-48
2022/07/01 02:22:23;;;;;;;21.53;14.50;;;22.30;99.90;;;;;;5075176;28;20461;-54
2022/07/01 02:24:50;;;;;;;15.87;13.80;;;22.30;99.90;;;;;;5075412;28;20467;-49
2022/07/01 02:27:16;;;;;;;17.73;14.20;;;22.30;99.90;;;;;;5075831;28;20833;-55
2022/07/01 02:29:45;;;;;;;21.60;15.27;;;22.30;99.90;;;;;;5075804;28;20447;-50
2022/07/01 02:32:13;;;;;;;17.90;16.00;;;22.30;99.90;;;;;;5075665;28;20507;-52
2022/07/01 02:34:40;;;;;;;16.33;14.10;;;22.20;99.90;;;;;;5076381;28;20450;-51
2022/07/01 02:37:08;;;;;;;18.43;16.27;;;22.20;99.90;;;;;;5075727;28;20495;-54
2022/07/01 02:39:35;;;;;;;18.30;14.90;;;22.20;99.90;;;;;;5075833;28;20443;-51
2022/07/01 02:44:56;;;;;;;18.97;15.40;;;22.20;99.90;;;;;;5051982;28;20448;-46
2022/07/01 02:47:23;;;;;;;20.00;15.27;;;22.30;99.90;;;;;;5075484;28;20467;-44
2022/07/01 02:49:51;;;;;;;18.50;15.20;;;22.30;99.90;;;;;;5075150;28;20487;-50
2022/07/01 02:52:21;;;;;;;18.53;15.03;;;22.30;99.90;;;;;;5075755;28;20483;-35
2022/07/01 02:54:48;;;;;;;18.73;14.63;;;22.30;99.90;;;;;;5079994;28;20503;-53
2022/07/01 02:57:15;;;;;;;17.50;14.93;;;22.30;99.90;;;;;;5078942;28;20479;-51
2022/07/01 02:59:41;;;;;;;17.03;14.60;;;22.40;99.90;;;;;;5078964;28;20450;-53
2022/07/01 03:02:10;;;;;;;16.73;14.93;;;22.40;99.90;;;;;;5078812;28;20487;-50
2022/07/01 03:04:36;;;;;;;19.13;16.30;;;22.40;99.90;;;;;;5078535;28;20422;-49
2022/07/01 03:07:03;;;;;;;18.33;15.17;;;22.30;99.90;;;;;;5078223;28;20435;-47
2022/07/01 03:09:34;;;;;;;18.53;15.87;;;22.30;99.90;;;;;;5078331;28;20491;-51
2022/07/01 03:12:24;;;;;;;18.27;15.50;;;22.30;99.90;;;;;;5078560;28;20455;-49
2022/07/01 03:14:47;;;;;;;21.23;15.03;;;22.20;99.90;;;;;;5071220;28;20481;-48
2022/07/01 03:17:16;;;;;;;15.83;14.13;;;22.20;99.90;;;;;;5078562;28;20469;-51
2022/07/01 03:19:42;;;;;;;21.13;16.80;;;22.20;99.90;;;;;;5078753;28;20458;-49
2022/07/01 03:22:09;;;;;;;21.37;16.80;;;22.20;99.90;;;;;;5077856;28;20422;-50
2022/07/01 03:24:36;;;;;;;20.10;16.37;;;22.20;99.90;;;;;;5079259;28;20451;-49
2022/07/01 03:27:05;;;;;;;18.93;16.87;;;22.20;99.90;;;;;;5079216;28;20467;-50
2022/07/01 03:29:32;;;;;;;18.10;16.13;;;22.10;99.90;;;;;;5079077;28;20423;-44
2022/07/01 03:32:01;;;;;;;19.13;15.70;;;22.20;99.90;;;;;;5078549;28;20586;-45
2022/07/01 03:34:30;;;;;;;20.20;16.37;;;22.20;99.90;;;;;;5078442;28;20466;-47
2022/07/01 03:36:57;;;;;;;19.80;15.67;;;22.20;99.90;;;;;;5078075;28;20485;-49
2022/07/01 03:39:23;;;;;;;19.20;15.60;;;22.20;99.90;;;;;;5078004;28;20454;-49
2022/07/01 03:41:50;;;;;;;20.97;17.10;;;22.20;99.90;;;;;;5078216;28;20440;-57
2022/07/01 03:44:17;;;;;;;19.50;16.33;;;22.20;99.90;;;;;;5077387;28;20463;-52
2022/07/01 03:46:44;;;;;;;19.90;17.63;;;22.30;99.90;;;;;;5079317;28;20439;-63
2022/07/01 03:49:11;;;;;;;20.57;16.50;;;22.30;99.90;;;;;;5078445;28;20450;-50
2022/07/01 03:51:40;;;;;;;21.40;17.20;;;22.40;99.90;;;;;;5078781;28;20463;-46
2022/07/01 03:56:58;;;;;;;21.67;17.10;;;22.40;99.90;;;;;;5078696;28;20474;-51
2022/07/01 03:59:25;;;;;;;17.63;15.47;;;22.50;99.90;;;;;;5077981;28;20423;-52
2022/07/01 04:01:52;;;;;;;20.87;16.77;;;22.50;99.90;;;;;;5078563;28;20470;-51
2022/07/01 04:04:19;;;;;;;24.00;17.70;;;22.50;99.90;;;;;;5077370;28;20487;-54
2022/07/01 04:06:48;;;;;;;26.40;15.97;;;22.50;99.90;;;;;;5078461;28;20503;-45
2022/07/01 04:09:16;;;;;;;18.37;15.27;;;22.50;99.90;;;;;;5077636;28;20447;-49
2022/07/01 04:11:44;;;;;;;21.10;17.07;;;22.50;99.90;;;;;;5077894;28;20463;-45
2022/07/01 04:14:11;;;;;;;19.53;17.47;;;22.60;99.90;;;;;;5077427;28;20467;-50
2022/07/01 04:16:39;;;;;;;21.27;16.27;;;22.50;99.90;;;;;;5077186;28;20491;-56
2022/07/01 04:19:06;;;;;;;20.07;17.63;;;22.60;99.90;;;;;;5077260;28;20460;-51
2022/07/01 04:24:19;;;;;;;19.10;16.47;;;22.70;99.90;;;;;;5077366;28;20422;-46
2022/07/01 04:26:46;;;;;;;19.80;16.97;;;22.80;99.90;;;;;;5077157;28;20514;-52
2022/07/01 04:29:13;;;;;;;22.43;17.13;;;22.80;99.90;;;;;;5077020;28;20426;-52
2022/07/01 04:31:40;;;;;;;22.77;18.93;;;22.90;99.90;;;;;;5077102;28;20495;-57
2022/07/01 04:34:09;;;;;;;22.20;16.87;;;23.00;99.90;;;;;;5076756;28;20543;-49
2022/07/01 04:36:36;;;;;;;20.07;16.73;;;23.00;99.90;;;;;;5077091;28;20439;-53
2022/07/01 04:39:04;;;;;;;21.50;18.70;;;23.10;99.90;;;;;;5076664;28;20461;-46
2022/07/01 04:44:19;;;;;;;20.60;18.13;;;23.30;99.90;;;;;;5076109;28;20418;-51
2022/07/01 04:46:46;;;;;;;20.93;17.10;;;23.30;99.90;;;;;;5076942;28;20463;-53
2022/07/01 04:49:13;;;;;;;19.67;16.87;;;23.40;99.90;;;;;;5076649;28;20443;-49
2022/07/01 04:51:40;;;;;;;25.13;18.67;;;23.40;99.90;;;;;;5076481;28;20459;-38
2022/07/01 04:54:08;;;;;;;21.23;17.17;;;23.50;99.90;;;;;;5076771;28;20527;-51
2022/07/01 04:56:38;;;;;;;25.00;18.77;;;23.50;99.90;;;;;;5077722;28;20432;-52
2022/07/01 04:59:05;;;;;;;22.57;17.33;;;23.60;99.90;;;;;;5076677;28;20535;-49
2022/07/01 05:01:32;;;;;;;23.07;18.80;;;23.70;99.90;;;;;;5077367;28;20507;-51
2022/07/01 05:03:59;;;;;;;20.03;17.00;;;23.70;99.90;;;;;;5076635;28;20450;-45
2022/07/01 05:06:26;;;;;;;22.97;18.60;;;23.70;99.90;;;;;;5075933;28;20471;-52
2022/07/01 05:08:54;;;;;;;21.03;17.27;;;23.80;99.90;;;;;;5076391;28;20467;-50
2022/07/01 05:11:20;;;;;;;19.43;16.40;;;23.90;99.90;;;;;;5075864;28;20788;-46
2022/07/01 05:13:49;;;;;;;20.90;17.63;;;23.90;99.90;;;;;;5076420;28;20544;-42
2022/07/01 05:16:15;;;;;;;21.43;17.53;;;24.00;99.90;;;;;;5075041;28;20471;-52
2022/07/01 05:24:12;;;;;;;21.17;18.00;;;24.20;99.90;;;;;;5076320;28;20454;-49
2022/07/01 05:26:39;;;;;;;19.83;17.60;;;24.20;99.90;;;;;;5076204;28;20459;-54
2022/07/01 05:29:07;;;;;;;18.50;16.07;;;24.30;99.90;;;;;;5077370;28;20517;-39
2022/07/01 05:31:34;;;;;;;20.63;17.13;;;24.40;99.90;;;;;;5075537;28;20440;-55
2022/07/01 05:34:01;;;;;;;21.00;18.40;;;24.50;99.90;;;;;;5076357;28;20497;-50
2022/07/01 05:36:28;;;;;;;19.97;16.90;;;24.70;99.90;;;;;;5076336;28;20482;-51
2022/07/01 05:38:58;;;;;;;20.10;16.80;;;24.90;99.90;;;;;;5076094;28;20511;-46
2022/07/01 05:41:24;;;;;;;17.80;15.90;;;25.10;99.90;;;;;;5076032;28;20503;-47
2022/07/01 05:43:51;;;;;;;18.80;15.73;;;25.30;99.90;;;;;;5076184;28;20429;-52
2022/07/01 05:46:19;;;;;;;18.43;15.10;;;25.50;99.90;;;;;;5076505;28;20573;-46
2022/07/01 05:48:46;;;;;;;15.97;14.27;;;25.60;99.90;;;;;;5096005;28;20456;-55
2022/07/01 05:51:13;;;;;;;17.77;15.97;;;25.70;99.90;;;;;;5088085;28;20489;-48
2022/07/01 05:53:41;;;;;;;19.63;16.37;;;25.70;99.90;;;;;;5094378;28;21033;-61
2022/07/01 05:56:08;;;;;;;19.37;15.10;;;25.70;99.90;;;;;;5088211;28;20427;-58
2022/07/01 05:58:34;;;;;;;17.70;15.70;;;25.80;99.90;;;;;;5074210;28;20431;-58
2022/07/01 06:01:01;;;;;;;17.13;15.33;;;25.80;99.90;;;;;;5084354;28;20779;-54
2022/07/01 06:03:29;;;;;;;18.77;16.77;;;25.80;99.90;;;;;;5092509;28;20911;-59
2022/07/01 06:05:56;;;;;;;17.23;15.10;;;25.80;99.90;;;;;;5079133;28;20529;-60
2022/07/01 06:08:23;;;;;;;20.20;15.70;;;25.80;99.90;;;;;;5076371;28;20494;-57
2022/07/01 06:10:50;;;;;;;18.70;15.20;;;25.80;99.90;;;;;;5081766;28;20521;-53
2022/07/01 06:13:19;;;;;;;22.90;17.37;;;25.80;99.90;;;;;;5081723;28;20471;-50
2022/07/01 06:15:46;;;;;;;26.80;18.57;;;25.90;99.90;;;;;;5079321;28;20992;-54
2022/07/01 06:18:13;;;;;;;20.77;18.03;;;25.90;99.90;;;;;;5076816;28;20485;-46
2022/07/01 06:20:41;;;;;;;24.03;18.20;;;25.90;99.90;;;;;;5077852;28;20427;-47
2022/07/01 06:23:08;;;;;;;18.67;16.70;;;26.00;99.90;;;;;;5074577;28;20447;-56
2022/07/01 06:25:34;;;;;;;21.67;16.37;;;26.00;99.90;;;;;;5067478;28;21003;-51
2022/07/01 06:28:01;;;;;;;21.87;19.10;;;26.00;99.90;;;;;;5072842;28;20484;-48
2022/07/01 06:30:28;;;;;;;22.67;17.30;;;26.00;99.90;;;;;;5069877;28;20474;-50
2022/07/01 06:32:55;;;;;;;18.27;16.30;;;26.00;99.90;;;;;;5068026;28;20796;-53
2022/07/01 06:35:22;;;;;;;18.20;16.20;;;26.10;99.90;;;;;;5065659;28;20497;-53
2022/07/01 06:37:50;;;;;;;22.17;17.00;;;26.20;99.90;;;;;;5069823;28;20491;-52
2022/07/01 06:40:17;;;;;;;22.63;17.50;;;26.20;99.90;;;;;;5069878;28;20502;-57
2022/07/01 06:42:44;;;;;;;18.27;16.17;;;26.20;99.90;;;;;;5073922;28;20470;-51
2022/07/01 06:45:11;;;;;;;22.70;17.30;;;26.20;99.90;;;;;;5083354;28;20431;-51
2022/07/01 06:47:39;;;;;;;22.60;16.80;;;26.20;99.90;;;;;;5087433;28;20446;-52
2022/07/01 06:50:07;;;;;;;17.87;15.97;;;26.30;99.90;;;;;;5071819;28;20440;-54
2022/07/01 06:52:35;;;;;;;22.27;15.90;;;26.40;99.90;;;;;;5068336;28;20457;-53
2022/07/01 06:55:03;;;;;;;20.90;16.80;;;26.50;99.90;;;;;;5068146;28;20468;-59
2022/07/01 06:57:30;;;;;;;17.70;15.80;;;26.50;99.90;;;;;;5080545;28;20538;-58
2022/07/01 06:59:59;;;;;;;18.30;16.40;;;26.60;99.90;;;;;;5088635;28;20498;-58
2022/07/01 07:02:26;;;;;;;18.80;16.10;;;26.70;99.90;;;;;;5087000;28;20494;-53
2022/07/01 07:04:57;;;;;;;19.43;16.40;;;26.70;99.90;;;;;;5086561;28;20434;-53
2022/07/01 07:07:24;;;;;;;21.23;17.27;;;26.70;99.90;;;;;;5087326;28;20455;-58
2022/07/01 07:09:51;;;;;;;18.93;17.00;;;26.90;99.90;;;;;;5087922;28;20470;-57
2022/07/01 07:12:19;;;;;;;21.53;17.23;;;26.90;99.90;;;;;;5090294;28;20480;-53
2022/07/01 07:14:46;;;;;;;20.57;18.40;;;26.90;99.90;;;;;;5087713;28;20581;-58
2022/07/01 07:17:13;;;;;;;18.60;16.63;;;27.00;99.90;;;;;;5086243;28;20525;-51
2022/07/01 07:19:40;;;;;;;18.53;16.40;;;27.20;99.90;;;;;;5090621;28;20485;-38
2022/07/01 07:22:07;;;;;;;15.67;14.03;;;27.60;99.90;;;;;;5093592;28;20477;-48
2022/07/01 07:24:34;;;;;;;16.70;14.90;;;28.30;99.90;;;;;;5093600;28;20457;-47
2022/07/01 07:27:01;;;;;;;18.90;16.90;;;28.80;99.90;;;;;;5094812;28;20518;-47
2022/07/01 07:29:29;;;;;;;18.23;16.33;;;28.90;99.90;;;;;;5095598;28;20443;-47
2022/07/01 07:31:56;;;;;;;17.87;16.07;;;28.80;99.90;;;;;;5094596;28;20468;-50
2022/07/01 07:34:22;;;;;;;17.70;15.90;;;28.60;99.90;;;;;;5094403;28;20516;-55
2022/07/01 07:36:49;;;;;;;20.30;13.70;;;28.40;99.90;;;;;;5094675;28;20582;-51
2022/07/01 07:39:16;;;;;;;13.33;11.57;;;28.20;99.90;;;;;;5092710;28;20500;-51
2022/07/01 07:41:43;;;;;;;14.40;11.00;;;28.00;99.90;;;;;;5092071;28;20460;-55
2022/07/01 07:44:10;;;;;;;15.40;11.73;;;27.90;99.90;;;;;;5089419;28;20448;-56
2022/07/01 07:46:39;;;;;;;14.80;10.67;;;28.10;99.90;;;;;;5090511;28;20442;-52
2022/07/01 07:49:06;;;;;;;12.87;11.47;;;29.10;99.90;;;;;;5094409;28;20437;-52
2022/07/01 07:51:33;;;;;;;13.00;11.70;;;30.30;99.90;;;;;;5096155;28;20446;-56
2022/07/01 07:54:00;;;;;;;12.30;11.17;;;31.30;99.90;;;;;;5091530;28;20569;-54
2022/07/01 07:56:27;;;;;;;12.53;10.60;;;31.70;99.90;;;;;;5095524;28;20966;-56
2022/07/01 07:58:54;;;;;;;10.90;9.80;;;31.70;99.90;;;;;;5089653;28;21187;-55
2022/07/01 08:01:20;;;;;;;13.53;10.33;;;31.60;99.90;;;;;;5086340;28;20534;-49
2022/07/01 08:03:49;;;;;;;12.10;10.20;;;31.50;99.90;;;;;;5086654;28;20454;-55
2022/07/01 08:06:15;;;;;;;10.23;9.23;;;31.40;99.90;;;;;;5084723;28;20446;-57
2022/07/01 08:08:42;;;;;;;11.00;9.20;;;30.90;99.90;;;;;;5089551;28;20456;-55
2022/07/01 08:11:09;;;;;;;10.47;9.47;;;30.50;99.90;;;;;;5086319;28;20936;-54
2022/07/01 08:13:36;;;;;;;11.50;10.27;;;30.00;99.90;;;;;;5086873;28;20474;-47
2022/07/01 08:16:03;;;;;;;11.30;10.27;;;29.70;99.90;;;;;;5087131;28;20844;-58
2022/07/01 08:18:30;;;;;;;12.10;10.90;;;29.30;99.90;;;;;;5092226;28;20501;-44
2022/07/01 08:20:58;;;;;;;12.80;11.60;;;29.10;99.90;;;;;;5095696;28;20438;-47
2022/07/01 08:23:25;;;;;;;12.73;11.43;;;28.70;99.90;;;;;;5096717;28;20506;-45
2022/07/01 08:25:52;;;;;;;13.70;9.83;;;28.60;99.90;;;;;;5093097;28;20481;-49
2022/07/01 08:28:19;;;;;;;11.40;10.27;;;28.60;99.90;;;;;;5096154;28;20819;-46
2022/07/01 08:30:46;;;;;;;11.53;10.33;;;28.60;99.90;;;;;;5095361;28;20514;-55
2022/07/01 08:33:13;;;;;;;11.50;10.33;;;28.60;99.90;;;;;;5094111;28;20427;-49
2022/07/01 08:35:40;;;;;;;11.77;9.90;;;28.60;99.90;;;;;;5097369;28;20461;-50
2022/07/01 08:38:08;;;;;;;16.33;11.63;;;28.60;99.90;;;;;;5097569;28;20434;-43
2022/07/01 08:40:36;;;;;;;12.70;10.97;;;28.60;99.90;;;;;;5094462;28;20530;-48
2022/07/01 08:43:04;;;;;;;12.30;11.10;;;28.50;99.90;;;;;;5093488;28;20466;-48
2022/07/01 08:45:33;;;;;;;11.30;10.20;;;28.50;99.90;;;;;;5096179;28;20418;-47
2022/07/01 08:48:01;;;;;;;11.10;10.00;;;28.70;99.90;;;;;;5095390;28;20458;-51
2022/07/01 08:50:29;;;;;;;10.40;9.20;;;28.90;99.90;;;;;;5095870;28;20467;-46
2022/07/01 08:52:56;;;;;;;10.93;9.43;;;29.00;99.90;;;;;;5094849;28;20502;-50
2022/07/01 08:55:25;;;;;;;12.40;10.70;;;29.60;99.90;;;;;;5094485;28;20458;-49
2022/07/01 08:57:52;;;;;;;11.60;10.67;;;30.30;99.90;;;;;;5096569;28;20502;-46
2022/07/01 09:00:20;;;;;;;13.13;11.67;;;30.80;99.90;;;;;;5095971;28;20853;-46
2022/07/01 09:02:54;;;;;;;14.03;11.20;;;31.50;99.90;;;;;;5096642;28;20462;-54
2022/07/01 09:05:23;;;;;;;11.83;10.67;;;32.40;99.90;;;;;;5093378;28;20446;-50
2022/07/01 09:07:55;;;;;;;10.87;9.73;;;33.10;99.90;;;;;;5096517;28;20439;-51
2022/07/01 09:10:23;;;;;;;11.57;10.47;;;33.80;99.90;;;;;;5093532;28;20487;-50
2022/07/01 09:12:52;;;;;;;12.40;11.20;;;33.50;99.90;;;;;;5095709;28;20497;-46
2022/07/01 09:15:25;;;;;;;13.17;11.97;;;32.90;99.90;;;;;;5092489;28;20489;-51
2022/07/01 09:17:53;;;;;;;13.57;12.27;;;32.10;99.90;;;;;;5096071;28;20427;-50
2022/07/01 09:20:29;;;;;;;12.33;11.30;;;31.30;99.90;;;;;;5096781;28;20426;-45
2022/07/01 09:23:14;;;;;;;11.37;10.33;;;30.70;99.90;;;;;;5096814;28;20433;-47
2022/07/01 09:25:47;;;;;;;9.53;7.93;;;30.10;99.90;;;;;;5095656;28;20450;-43
2022/07/01 09:28:17;;;;;;;6.47;4.60;;;29.50;99.90;;;;;;5096507;28;20498;-54
2022/07/01 09:30:47;;;;;;;4.17;3.33;;;28.30;99.90;;;;;;5085238;28;20444;-39
2022/07/01 09:33:16;;;;;;;5.73;3.67;;;27.20;99.90;;;;;;5096009;28;20456;-47
2022/07/01 09:35:44;;;;;;;4.00;3.60;;;26.20;99.90;;;;;;5096967;28;20516;-52
2022/07/01 09:38:13;;;;;;;4.30;3.40;;;25.40;99.90;;;;;;5095868;28;20458;-41
2022/07/01 09:40:50;;;;;;;3.30;3.00;;;24.70;99.90;;;;;;5096722;28;20443;-38
2022/07/01 09:43:18;;;;;;;3.53;3.23;;;24.20;99.90;;;;;;5097093;28;20465;-46
2022/07/01 09:45:57;;;;;;;2.50;2.30;;;23.90;99.90;;;;;;5096373;28;20454;-42
2022/07/01 09:48:26;;;;;;;3.03;2.27;;;23.60;99.90;;;;;;5096515;28;20446;-39
2022/07/01 09:50:53;;;;;;;2.10;1.70;;;23.20;99.90;;;;;;5096398;28;20514;-57
2022/07/01 09:53:21;;;;;;;2.33;2.03;;;22.70;99.90;;;;;;5096297;28;20469;-61
2022/07/01 09:55:49;;;;;;;3.90;2.00;;;22.30;99.90;;;;;;5096105;28;20505;-48
2022/07/01 09:58:16;;;;;;;3.23;2.80;;;22.10;99.90;;;;;;5096387;28;20437;-45
2022/07/01 10:00:44;;;;;;;7.37;1.87;;;22.00;99.90;;;;;;5096468;28;20441;-51
2022/07/01 10:03:11;;;;;;;4.27;2.83;;;21.80;99.90;;;;;;5095267;28;20462;-51
2022/07/01 10:05:43;;;;;;;3.13;2.83;;;21.50;99.90;;;;;;5094944;28;20507;-42
2022/07/01 10:08:35;;;;;;;2.60;2.30;;;21.40;99.90;;;;;;5095316;28;20494;-58
2022/07/01 10:11:25;;;;;;;3.27;2.37;;;21.30;99.90;;;;;;5095455;28;20478;-55
2022/07/01 10:13:53;;;;;;;2.50;2.30;;;21.30;99.90;;;;;;5094871;28;20431;-44
2022/07/01 10:16:20;;;;;;;4.53;2.30;;;21.30;99.90;;;;;;5094326;28;20457;-46
2022/07/01 10:18:47;;;;;;;3.70;1.80;;;21.30;99.90;;;;;;5093852;28;20439;-42
2022/07/01 10:21:27;;;;;;;2.40;2.20;;;21.30;99.90;;;;;;5089266;28;20550;-55
2022/07/01 10:24:12;;;;;;;2.47;2.27;;;21.30;99.90;;;;;;5090034;28;20491;-53
2022/07/01 10:26:42;;;;;;;2.77;2.23;;;21.30;99.90;;;;;;5091500;28;20534;-57
2022/07/01 10:29:28;;;;;;;3.10;2.80;;;21.20;99.90;;;;;;5091109;28;20479;-53
2022/07/01 10:32:00;;;;;;;2.70;2.50;;;21.10;99.90;;;;;;5086428;28;20406;-53
2022/07/01 10:34:35;;;;;;;2.33;2.13;;;21.00;99.90;;;;;;5094725;28;20565;-44
2022/07/01 10:37:03;;;;;;;2.70;2.47;;;21.00;99.90;;;;;;5094609;28;20437;-44
2022/07/01 10:39:30;;;;;;;3.40;2.23;;;20.80;99.90;;;;;;5094799;28;20518;-47
2022/07/01 10:42:02;;;;;;;2.17;1.97;;;20.70;99.90;;;;;;5094612;28;20431;-44
2022/07/01 10:44:35;;;;;;;3.60;2.10;;;20.70;99.90;;;;;;5075080;28;20451;-47
2022/07/01 10:47:05;;;;;;;2.90;2.10;;;20.60;99.90;;;;;;5075535;28;20253;-43
2022/07/01 10:49:57;;;;;;;2.40;1.90;;;20.60;99.90;;;;;;5074994;28;20426;-45
2022/07/01 10:52:24;;;;;;;1.70;1.60;;;20.60;99.90;;;;;;5076296;28;20473;-49
2022/07/01 10:54:55;;;;;;;1.47;1.33;;;20.60;99.90;;;;;;5095104;28;20429;-50
2022/07/01 10:57:36;;;;;;;1.40;1.27;;;20.50;99.90;;;;;;5095108;28;20457;-46
2022/07/01 11:00:32;;;;;;;2.03;1.70;;;20.50;99.90;;;;;;5093295;28;20462;-41
2022/07/01 11:03:20;;;;;;;4.17;1.00;;;20.40;99.90;;;;;;5094786;28;20433;-45
2022/07/01 11:05:50;;;;;;;1.20;1.07;;;20.20;99.90;;;;;;5085738;28;20471;-44
2022/07/01 11:08:17;;;;;;;2.00;1.50;;;20.20;99.90;;;;;;5080853;28;20481;-52
2022/07/01 11:10:44;;;;;;;1.20;0.93;;;20.20;99.90;;;;;;5084099;28;20518;-52
2022/07/01 11:13:15;;;;;;;2.33;1.50;;;20.20;99.90;;;;;;5094121;28;20446;-47
2022/07/01 11:15:45;;;;;;;2.80;1.30;;;20.20;99.90;;;;;;5077224;28;20427;-49
2022/07/01 11:18:14;;;;;;;2.10;1.10;;;20.30;99.90;;;;;;5079342;28;20531;-55
2022/07/01 11:20:41;;;;;;;1.30;1.10;;;20.30;99.90;;;;;;5079656;28;20841;-50
2022/07/01 11:23:08;;;;;;;1.77;1.30;;;20.30;99.90;;;;;;5079272;28;20493;-49
2022/07/01 11:25:35;;;;;;;1.80;1.30;;;20.30;99.90;;;;;;5074625;28;20475;-53
2022/07/01 11:28:02;;;;;;;3.50;1.37;;;20.30;99.90;;;;;;5070175;28;20451;-51
2022/07/01 11:30:30;;;;;;;1.90;1.60;;;20.20;99.90;;;;;;5078194;28;20483;-52
2022/07/01 11:32:59;;;;;;;2.13;1.63;;;20.20;99.90;;;;;;5078353;28;20456;-43
2022/07/01 11:41:03;;;;;;;1.33;1.23;;;20.30;99.90;;;;;;5097682;28;20426;-46
2022/07/01 11:43:33;;;;;;;5.57;1.90;;;20.30;99.90;;;;;;5097634;28;20553;-52
2022/07/01 11:46:03;;;;;;;2.13;1.40;;;20.20;99.90;;;;;;5097563;28;20473;-52
2022/07/01 11:48:38;;;;;;;1.40;1.30;;;20.40;99.90;;;;;;5097684;28;20434;-53
2022/07/01 11:51:12;;;;;;;1.53;1.40;;;20.50;99.90;;;;;;5097880;28;20430;-47
2022/07/01 11:53:40;;;;;;;1.93;1.30;;;20.40;99.90;;;;;;5098489;28;20445;-54
2022/07/01 11:56:07;;;;;;;1.80;1.50;;;20.30;99.90;;;;;;5097789;28;20469;-45
2022/07/01 11:58:49;;;;;;;1.90;1.33;;;20.10;99.90;;;;;;5098436;28;20438;-45
2022/07/01 12:01:28;;;;;;;3.20;1.80;;;20.00;99.90;;;;;;5098788;28;20419;-41
2022/07/01 12:03:57;;;;;;;1.80;1.40;;;19.90;99.90;;;;;;5098613;28;20487;-50
2022/07/01 12:06:24;;;;;;;1.57;1.47;;;19.80;99.90;;;;;;5098537;28;20486;-59
2022/07/01 12:08:53;;;;;;;2.20;2.00;;;19.70;99.90;;;;;;5098217;28;20647;-50
2022/07/01 12:11:21;;;;;;;2.10;1.47;;;19.60;99.90;;;;;;5098283;28;20446;-54
2022/07/01 12:13:49;;;;;;;2.13;1.67;;;19.60;99.90;;;;;;5097587;28;20438;-50
2022/07/01 12:16:17;;;;;;;2.50;2.30;;;19.60;99.90;;;;;;5096637;28;20815;-58
2022/07/01 12:18:59;;;;;;;4.13;3.50;;;19.70;99.90;;;;;;5089825;28;20510;-50
2022/07/01 12:21:27;;;;;;;2.67;2.37;;;19.60;99.90;;;;;;5097394;28;20508;-50
2022/07/01 12:24:09;;;;;;;4.00;3.60;;;19.70;99.90;;;;;;5096928;28;20522;-49
2022/07/01 12:26:48;;;;;;;2.77;2.57;;;19.70;99.90;;;;;;5095849;28;21023;-49
2022/07/01 12:29:15;;;;;;;3.30;3.00;;;19.90;99.90;;;;;;5096652;28;20422;-48
2022/07/01 12:31:41;;;;;;;3.83;3.53;;;20.00;99.90;;;;;;5097054;28;20455;-54
2022/07/01 12:34:11;;;;;;;4.20;3.70;;;20.00;99.90;;;;;;5096776;28;20472;-47
2022/07/01 12:36:38;;;;;;;3.40;3.10;;;19.90;99.90;;;;;;5096353;28;20462;-48
2022/07/01 12:39:06;;;;;;;4.17;3.47;;;19.80;99.90;;;;;;5097082;28;20454;-48
2022/07/01 12:41:35;;;;;;;4.57;3.83;;;19.80;99.90;;;;;;5096740;28;20491;-45
2022/07/01 12:44:05;;;;;;;3.83;3.50;;;19.70;99.90;;;;;;5096894;28;20554;-48
2022/07/01 12:46:32;;;;;;;3.90;3.40;;;19.70;99.90;;;;;;5096453;28;20494;-49
2022/07/01 12:49:00;;;;;;;4.83;3.97;;;19.70;99.90;;;;;;5096923;28;20481;-52
2022/07/01 12:51:32;;;;;;;4.80;3.80;;;19.90;99.90;;;;;;5097794;28;20433;-52
2022/07/01 12:54:00;;;;;;;4.23;3.83;;;20.10;99.90;;;;;;5097976;28;20453;-53
2022/07/01 12:56:28;;;;;;;3.93;3.60;;;20.30;99.90;;;;;;5096642;28;20486;-44
2022/07/01 12:58:56;;;;;;;5.70;5.10;;;20.40;99.90;;;;;;5088044;28;20473;-56
2022/07/01 13:01:23;;;;;;;4.70;4.23;;;20.60;99.90;;;;;;5094632;28;20514;-51
2022/07/01 13:03:50;;;;;;;5.10;4.60;;;20.60;99.90;;;;;;5095093;28;20502;-44